<?xml version="1.0" encoding="UTF-8" standalone="no" ?>
<gpx xmlns="http://www.topografix.com/GPX/1/1" xmlns:xsi="http://www.w3.org/2001/XMLSchema-instance" xsi:schemaLocation="http://www.topografix.com/GPX/1/1 http://www.topografix.com/GPX/1/1/gpx.xsd" version="1.1" creator="VisuGPX - https://www.visugpx.com">
  <metadata>
    <name>De Meillerie à Salvigny</name>
    <desc><![CDATA[Randonnée en Haute-Savoie]]></desc>
  </metadata>
  <trk>
    <name><![CDATA[ACTIVE LOG: 25 JUL 2015 14:27]]></name>
    <trkseg>
      <trkpt lat="46.40773" lon="6.71851">
        <ele>383.7</ele>
        <time>2015-07-25T12:27:00Z</time>
      </trkpt>
      <trkpt lat="46.40733" lon="6.71859">
        <ele>391.87</ele>
        <time>2015-07-25T12:28:05Z</time>
      </trkpt>
      <trkpt lat="46.40689" lon="6.71813">
        <ele>402.93</ele>
        <time>2015-07-25T12:29:10Z</time>
      </trkpt>
      <trkpt lat="46.40646" lon="6.71785">
        <ele>413.5</ele>
        <time>2015-07-25T12:30:15Z</time>
      </trkpt>
      <trkpt lat="46.40619" lon="6.71824">
        <ele>424.56</ele>
        <time>2015-07-25T12:31:20Z</time>
      </trkpt>
      <trkpt lat="46.40595" lon="6.71851">
        <ele>433.69</ele>
        <time>2015-07-25T12:32:25Z</time>
      </trkpt>
      <trkpt lat="46.4059" lon="6.71849">
        <ele>434.17</ele>
        <time>2015-07-25T12:33:30Z</time>
      </trkpt>
      <trkpt lat="46.40558" lon="6.71897">
        <ele>446.19</ele>
        <time>2015-07-25T12:34:35Z</time>
      </trkpt>
      <trkpt lat="46.40542" lon="6.71973">
        <ele>451.96</ele>
        <time>2015-07-25T12:35:40Z</time>
      </trkpt>
      <trkpt lat="46.40533" lon="6.72025">
        <ele>456.28</ele>
        <time>2015-07-25T12:36:45Z</time>
      </trkpt>
      <trkpt lat="46.40517" lon="6.72111">
        <ele>465.42</ele>
        <time>2015-07-25T12:37:50Z</time>
      </trkpt>
      <trkpt lat="46.40503" lon="6.72193">
        <ele>474.55</ele>
        <time>2015-07-25T12:38:55Z</time>
      </trkpt>
      <trkpt lat="46.40485" lon="6.72244">
        <ele>477.43</ele>
        <time>2015-07-25T12:40:00Z</time>
      </trkpt>
      <trkpt lat="46.40495" lon="6.72277">
        <ele>468.78</ele>
        <time>2015-07-25T12:41:05Z</time>
      </trkpt>
      <trkpt lat="46.40434" lon="6.72308">
        <ele>466.38</ele>
        <time>2015-07-25T12:42:10Z</time>
      </trkpt>
      <trkpt lat="46.40464" lon="6.72335">
        <ele>475.03</ele>
        <time>2015-07-25T12:43:15Z</time>
      </trkpt>
      <trkpt lat="46.40468" lon="6.72371">
        <ele>482.72</ele>
        <time>2015-07-25T12:44:20Z</time>
      </trkpt>
      <trkpt lat="46.40471" lon="6.72404">
        <ele>490.41</ele>
        <time>2015-07-25T12:45:25Z</time>
      </trkpt>
      <trkpt lat="46.40464" lon="6.72412">
        <ele>500.5</ele>
        <time>2015-07-25T12:46:30Z</time>
      </trkpt>
      <trkpt lat="46.40454" lon="6.72414">
        <ele>509.64</ele>
        <time>2015-07-25T12:47:35Z</time>
      </trkpt>
      <trkpt lat="46.40455" lon="6.72443">
        <ele>519.73</ele>
        <time>2015-07-25T12:48:40Z</time>
      </trkpt>
      <trkpt lat="46.40439" lon="6.7242">
        <ele>526.94</ele>
        <time>2015-07-25T12:49:45Z</time>
      </trkpt>
      <trkpt lat="46.40415" lon="6.72398">
        <ele>535.59</ele>
        <time>2015-07-25T12:50:50Z</time>
      </trkpt>
      <trkpt lat="46.40412" lon="6.72455">
        <ele>543.28</ele>
        <time>2015-07-25T12:51:55Z</time>
      </trkpt>
      <trkpt lat="46.40426" lon="6.72506">
        <ele>553.38</ele>
        <time>2015-07-25T12:53:00Z</time>
      </trkpt>
      <trkpt lat="46.4042" lon="6.72553">
        <ele>564.43</ele>
        <time>2015-07-25T12:54:05Z</time>
      </trkpt>
      <trkpt lat="46.40412" lon="6.72602">
        <ele>575.01</ele>
        <time>2015-07-25T12:55:10Z</time>
      </trkpt>
      <trkpt lat="46.40413" lon="6.72643">
        <ele>581.25</ele>
        <time>2015-07-25T12:56:15Z</time>
      </trkpt>
      <trkpt lat="46.40406" lon="6.72656">
        <ele>590.87</ele>
        <time>2015-07-25T12:57:20Z</time>
      </trkpt>
      <trkpt lat="46.40382" lon="6.72613">
        <ele>599.04</ele>
        <time>2015-07-25T12:58:25Z</time>
      </trkpt>
      <trkpt lat="46.40371" lon="6.72559">
        <ele>606.73</ele>
        <time>2015-07-25T12:59:30Z</time>
      </trkpt>
      <trkpt lat="46.40356" lon="6.72513">
        <ele>614.9</ele>
        <time>2015-07-25T13:00:35Z</time>
      </trkpt>
      <trkpt lat="46.40334" lon="6.72499">
        <ele>620.67</ele>
        <time>2015-07-25T13:01:40Z</time>
      </trkpt>
      <trkpt lat="46.40345" lon="6.7256">
        <ele>629.32</ele>
        <time>2015-07-25T13:02:45Z</time>
      </trkpt>
      <trkpt lat="46.4035" lon="6.72619">
        <ele>639.89</ele>
        <time>2015-07-25T13:03:50Z</time>
      </trkpt>
      <trkpt lat="46.40345" lon="6.72684">
        <ele>649.99</ele>
        <time>2015-07-25T13:04:55Z</time>
      </trkpt>
      <trkpt lat="46.40349" lon="6.72693">
        <ele>651.43</ele>
        <time>2015-07-25T13:06:00Z</time>
      </trkpt>
      <trkpt lat="46.40339" lon="6.72686">
        <ele>650.47</ele>
        <time>2015-07-25T13:07:05Z</time>
      </trkpt>
      <trkpt lat="46.40315" lon="6.72632">
        <ele>660.56</ele>
        <time>2015-07-25T13:08:10Z</time>
      </trkpt>
      <trkpt lat="46.403" lon="6.7267">
        <ele>669.7</ele>
        <time>2015-07-25T13:09:15Z</time>
      </trkpt>
      <trkpt lat="46.40297" lon="6.72715">
        <ele>679.79</ele>
        <time>2015-07-25T13:10:20Z</time>
      </trkpt>
      <trkpt lat="46.40299" lon="6.72711">
        <ele>678.35</ele>
        <time>2015-07-25T13:11:25Z</time>
      </trkpt>
      <trkpt lat="46.40293" lon="6.72701">
        <ele>683.15</ele>
        <time>2015-07-25T13:12:30Z</time>
      </trkpt>
      <trkpt lat="46.40275" lon="6.72671">
        <ele>689.88</ele>
        <time>2015-07-25T13:13:35Z</time>
      </trkpt>
      <trkpt lat="46.40262" lon="6.72638">
        <ele>696.61</ele>
        <time>2015-07-25T13:14:40Z</time>
      </trkpt>
      <trkpt lat="46.40254" lon="6.72664">
        <ele>705.75</ele>
        <time>2015-07-25T13:15:45Z</time>
      </trkpt>
      <trkpt lat="46.40255" lon="6.72714">
        <ele>714.4</ele>
        <time>2015-07-25T13:16:50Z</time>
      </trkpt>
      <trkpt lat="46.40249" lon="6.72677">
        <ele>719.68</ele>
        <time>2015-07-25T13:17:55Z</time>
      </trkpt>
      <trkpt lat="46.40228" lon="6.72676">
        <ele>728.82</ele>
        <time>2015-07-25T13:19:00Z</time>
      </trkpt>
      <trkpt lat="46.40215" lon="6.72719">
        <ele>737.47</ele>
        <time>2015-07-25T13:20:05Z</time>
      </trkpt>
      <trkpt lat="46.40212" lon="6.72782">
        <ele>743.24</ele>
        <time>2015-07-25T13:21:10Z</time>
      </trkpt>
      <trkpt lat="46.40183" lon="6.72836">
        <ele>749.97</ele>
        <time>2015-07-25T13:22:15Z</time>
      </trkpt>
      <trkpt lat="46.40155" lon="6.72875">
        <ele>757.18</ele>
        <time>2015-07-25T13:23:20Z</time>
      </trkpt>
      <trkpt lat="46.40119" lon="6.72905">
        <ele>766.79</ele>
        <time>2015-07-25T13:24:25Z</time>
      </trkpt>
      <trkpt lat="46.40087" lon="6.72932">
        <ele>773.04</ele>
        <time>2015-07-25T13:25:30Z</time>
      </trkpt>
      <trkpt lat="46.40087" lon="6.72936">
        <ele>774</ele>
        <time>2015-07-25T13:26:35Z</time>
      </trkpt>
      <trkpt lat="46.40096" lon="6.72933">
        <ele>774</ele>
        <time>2015-07-25T13:27:40Z</time>
      </trkpt>
      <trkpt lat="46.40086" lon="6.72937">
        <ele>775.44</ele>
        <time>2015-07-25T13:28:45Z</time>
      </trkpt>
      <trkpt lat="46.40063" lon="6.72967">
        <ele>785.53</ele>
        <time>2015-07-25T13:29:50Z</time>
      </trkpt>
      <trkpt lat="46.40034" lon="6.72993">
        <ele>791.78</ele>
        <time>2015-07-25T13:30:55Z</time>
      </trkpt>
      <trkpt lat="46.40018" lon="6.72988">
        <ele>799.47</ele>
        <time>2015-07-25T13:32:00Z</time>
      </trkpt>
      <trkpt lat="46.39985" lon="6.72974">
        <ele>808.13</ele>
        <time>2015-07-25T13:33:05Z</time>
      </trkpt>
      <trkpt lat="46.39939" lon="6.7298">
        <ele>817.26</ele>
        <time>2015-07-25T13:34:10Z</time>
      </trkpt>
      <trkpt lat="46.39906" lon="6.72963">
        <ele>824.47</ele>
        <time>2015-07-25T13:35:15Z</time>
      </trkpt>
      <trkpt lat="46.39879" lon="6.72959">
        <ele>831.68</ele>
        <time>2015-07-25T13:36:20Z</time>
      </trkpt>
      <trkpt lat="46.39857" lon="6.72938">
        <ele>836.48</ele>
        <time>2015-07-25T13:37:25Z</time>
      </trkpt>
      <trkpt lat="46.39837" lon="6.72903">
        <ele>845.14</ele>
        <time>2015-07-25T13:38:30Z</time>
      </trkpt>
      <trkpt lat="46.3983" lon="6.72891">
        <ele>847.06</ele>
        <time>2015-07-25T13:39:35Z</time>
      </trkpt>
      <trkpt lat="46.39796" lon="6.72887">
        <ele>853.31</ele>
        <time>2015-07-25T13:40:40Z</time>
      </trkpt>
      <trkpt lat="46.39768" lon="6.72909">
        <ele>865.32</ele>
        <time>2015-07-25T13:41:45Z</time>
      </trkpt>
      <trkpt lat="46.39742" lon="6.72932">
        <ele>875.42</ele>
        <time>2015-07-25T13:42:50Z</time>
      </trkpt>
      <trkpt lat="46.39702" lon="6.72942">
        <ele>888.4</ele>
        <time>2015-07-25T13:43:55Z</time>
      </trkpt>
      <trkpt lat="46.39674" lon="6.72945">
        <ele>898.97</ele>
        <time>2015-07-25T13:45:00Z</time>
      </trkpt>
      <trkpt lat="46.39658" lon="6.72979">
        <ele>909.54</ele>
        <time>2015-07-25T13:46:05Z</time>
      </trkpt>
      <trkpt lat="46.3965" lon="6.7301">
        <ele>920.12</ele>
        <time>2015-07-25T13:47:10Z</time>
      </trkpt>
      <trkpt lat="46.39631" lon="6.73018">
        <ele>922.04</ele>
        <time>2015-07-25T13:48:15Z</time>
      </trkpt>
      <trkpt lat="46.39643" lon="6.73018">
        <ele>922.04</ele>
        <time>2015-07-25T13:49:20Z</time>
      </trkpt>
      <trkpt lat="46.39647" lon="6.73013">
        <ele>921.56</ele>
        <time>2015-07-25T13:50:25Z</time>
      </trkpt>
      <trkpt lat="46.39603" lon="6.7303">
        <ele>928.29</ele>
        <time>2015-07-25T13:51:30Z</time>
      </trkpt>
      <trkpt lat="46.39574" lon="6.73043">
        <ele>938.38</ele>
        <time>2015-07-25T13:52:35Z</time>
      </trkpt>
      <trkpt lat="46.39561" lon="6.73066">
        <ele>950.88</ele>
        <time>2015-07-25T13:53:40Z</time>
      </trkpt>
      <trkpt lat="46.39555" lon="6.73062">
        <ele>956.65</ele>
        <time>2015-07-25T13:54:45Z</time>
      </trkpt>
      <trkpt lat="46.39543" lon="6.73087">
        <ele>958.57</ele>
        <time>2015-07-25T13:55:50Z</time>
      </trkpt>
      <trkpt lat="46.39544" lon="6.73096">
        <ele>960.49</ele>
        <time>2015-07-25T13:56:55Z</time>
      </trkpt>
      <trkpt lat="46.39539" lon="6.73122">
        <ele>962.9</ele>
        <time>2015-07-25T13:58:00Z</time>
      </trkpt>
      <trkpt lat="46.39526" lon="6.73162">
        <ele>966.26</ele>
        <time>2015-07-25T13:59:05Z</time>
      </trkpt>
      <trkpt lat="46.39495" lon="6.73195">
        <ele>973.47</ele>
        <time>2015-07-25T14:00:10Z</time>
      </trkpt>
      <trkpt lat="46.39462" lon="6.73253">
        <ele>980.68</ele>
        <time>2015-07-25T14:01:15Z</time>
      </trkpt>
      <trkpt lat="46.39441" lon="6.73297">
        <ele>983.57</ele>
        <time>2015-07-25T14:02:20Z</time>
      </trkpt>
      <trkpt lat="46.39422" lon="6.7329">
        <ele>984.53</ele>
        <time>2015-07-25T14:03:25Z</time>
      </trkpt>
      <trkpt lat="46.39445" lon="6.73312">
        <ele>985.97</ele>
        <time>2015-07-25T14:04:30Z</time>
      </trkpt>
      <trkpt lat="46.39426" lon="6.73336">
        <ele>988.85</ele>
        <time>2015-07-25T14:05:35Z</time>
      </trkpt>
      <trkpt lat="46.39388" lon="6.73357">
        <ele>991.74</ele>
        <time>2015-07-25T14:06:40Z</time>
      </trkpt>
      <trkpt lat="46.39388" lon="6.73357">
        <ele>992.22</ele>
        <time>2015-07-25T14:07:45Z</time>
      </trkpt>
      <trkpt lat="46.39371" lon="6.73386">
        <ele>994.14</ele>
        <time>2015-07-25T14:08:50Z</time>
      </trkpt>
      <trkpt lat="46.39318" lon="6.73429">
        <ele>998.95</ele>
        <time>2015-07-25T14:09:55Z</time>
      </trkpt>
      <trkpt lat="46.39266" lon="6.73422">
        <ele>1002.31</ele>
        <time>2015-07-25T14:11:00Z</time>
      </trkpt>
      <trkpt lat="46.39238" lon="6.73421">
        <ele>1004.23</ele>
        <time>2015-07-25T14:12:05Z</time>
      </trkpt>
      <trkpt lat="46.3921" lon="6.73423">
        <ele>1010.96</ele>
        <time>2015-07-25T14:13:10Z</time>
      </trkpt>
      <trkpt lat="46.392" lon="6.73392">
        <ele>1011.44</ele>
        <time>2015-07-25T14:14:15Z</time>
      </trkpt>
      <trkpt lat="46.39201" lon="6.73355">
        <ele>1014.33</ele>
        <time>2015-07-25T14:15:20Z</time>
      </trkpt>
      <trkpt lat="46.39163" lon="6.73338">
        <ele>1023.94</ele>
        <time>2015-07-25T14:16:25Z</time>
      </trkpt>
      <trkpt lat="46.39132" lon="6.73313">
        <ele>1031.15</ele>
        <time>2015-07-25T14:17:30Z</time>
      </trkpt>
      <trkpt lat="46.39143" lon="6.73236">
        <ele>1036.44</ele>
        <time>2015-07-25T14:18:35Z</time>
      </trkpt>
      <trkpt lat="46.39159" lon="6.73153">
        <ele>1040.76</ele>
        <time>2015-07-25T14:19:40Z</time>
      </trkpt>
      <trkpt lat="46.39158" lon="6.73089">
        <ele>1043.17</ele>
        <time>2015-07-25T14:20:45Z</time>
      </trkpt>
      <trkpt lat="46.39155" lon="6.73073">
        <ele>1044.61</ele>
        <time>2015-07-25T14:20:59Z</time>
      </trkpt>
    </trkseg>
  </trk>
</gpx>